createdAt,value
2022-09-07T00:00:44.172Z,1004.2
2022-09-07T00:01:46.765Z,1004.2
2022-09-07T00:02:50.795Z,1004.2
2022-09-07T00:03:53.698Z,1004.3
2022-09-07T00:04:55.100Z,1004.3
2022-09-07T00:05:57.028Z,1004.3
2022-09-07T00:06:58.916Z,1004.3
2022-09-07T00:08:00.791Z,1004.3
2022-09-07T00:09:03.136Z,1004.2
2022-09-07T00:10:09.512Z,1004.2
2022-09-07T00:11:12.729Z,1004.2
2022-09-07T00:12:14.992Z,1004.2
2022-09-07T00:13:16.734Z,1004.1
2022-09-07T00:14:19.552Z,1004.1
2022-09-07T00:15:21.800Z,1004.2
2022-09-07T00:16:24.122Z,1004.2
2022-09-07T00:17:25.732Z,1004.1
2022-09-07T00:18:30.416Z,1004
2022-09-07T00:19:32.973Z,1004.1
2022-09-07T00:20:34.764Z,1004.1
2022-09-07T00:21:36.731Z,1004.1
2022-09-07T00:22:38.172Z,1004.1
2022-09-07T00:23:40.073Z,1004.1
2022-09-07T00:24:41.819Z,1004.1
2022-09-07T00:25:43.919Z,1004.1
2022-09-07T00:26:47.771Z,1004.1
2022-09-07T00:27:50.848Z,1004
2022-09-07T00:28:52.931Z,1004
2022-09-07T00:29:54.939Z,1004
2022-09-07T00:30:56.807Z,1004
2022-09-07T00:31:59.419Z,1004
2022-09-07T00:33:01.739Z,1004
2022-09-07T00:34:03.792Z,1004
2022-09-07T00:35:05.912Z,1004
2022-09-07T00:36:07.843Z,1004
2022-09-07T00:37:09.861Z,1003.9
2022-09-07T00:38:11.719Z,1003.9
2022-09-07T00:39:12.680Z,1003.9
2022-09-07T00:40:13.831Z,1003.9
2022-09-07T00:41:15.912Z,1003.9
2022-09-07T00:42:17.811Z,1003.9
2022-09-07T00:43:19.831Z,1003.9
2022-09-07T00:44:21.873Z,1004
2022-09-07T00:45:23.731Z,1004
2022-09-07T00:46:25.942Z,1003.7
2022-09-07T00:47:27.731Z,1003.9
2022-09-07T00:48:30.006Z,1004
2022-09-07T00:49:32.051Z,1004
2022-09-07T00:50:33.931Z,1004.1
2022-09-07T00:51:35.753Z,1004
2022-09-07T00:52:36.632Z,1004
2022-09-07T00:53:37.752Z,1004
2022-09-07T00:54:39.705Z,1004
2022-09-07T00:55:40.800Z,1004
2022-09-07T00:56:42.993Z,1004
2022-09-07T00:57:44.672Z,1004.1
2022-09-07T00:58:45.845Z,1004
2022-09-07T00:59:47.652Z,1004
2022-09-07T01:03:56.676Z,1004
2022-09-07T01:04:57.735Z,1003.9
2022-09-07T01:05:59.835Z,1003.9
2022-09-07T01:07:02.396Z,1003.9
2022-09-07T01:08:03.816Z,1003.8
2022-09-07T01:09:06.400Z,1003.9
2022-09-07T01:10:07.695Z,1003.9
2022-09-07T01:11:11.689Z,1003.9
2022-09-07T01:12:13.696Z,1003.9
2022-09-07T01:13:15.075Z,1003.9
2022-09-07T01:14:16.777Z,1003.9
2022-09-07T01:15:18.796Z,1003.9
2022-09-07T01:16:21.247Z,1003.9
2022-09-07T01:17:22.869Z,1003.9
2022-09-07T01:18:24.894Z,1003.9
2022-09-07T01:19:26.695Z,1003.9
2022-09-07T01:20:27.755Z,1003.9
2022-09-07T01:21:28.656Z,1003.8
2022-09-07T01:22:30.896Z,1003.9
2022-09-07T01:23:32.810Z,1003.9
2022-09-07T01:24:35.056Z,1003.9
2022-09-07T01:25:37.215Z,1003.9
2022-09-07T01:26:40.095Z,1003.9
2022-09-07T01:27:42.675Z,1003.9
2022-09-07T01:28:44.076Z,1003.9
2022-09-07T01:29:47.358Z,1003.8
2022-09-07T01:30:51.372Z,1003.9
2022-09-07T01:31:55.021Z,1003.9
2022-09-07T01:32:57.017Z,1003.9
2022-09-07T01:33:59.695Z,1003.9
2022-09-07T01:35:02.215Z,1003.9
2022-09-07T01:36:04.339Z,1003.9
2022-09-07T01:37:07.118Z,1003.9
2022-09-07T01:38:09.735Z,1003.8
2022-09-07T01:39:13.515Z,1003.8
2022-09-07T01:40:15.816Z,1003.9
2022-09-07T01:41:17.675Z,1003.8
2022-09-07T01:42:18.815Z,1003.8
2022-09-07T01:43:20.838Z,1003.8
2022-09-07T01:44:26.961Z,1003.8
2022-09-07T01:45:28.895Z,1003.8
2022-09-07T01:46:31.028Z,1003.8
2022-09-07T01:47:34.777Z,1003.8
2022-09-07T01:48:36.937Z,1003.7
2022-09-07T01:49:39.316Z,1003.7
2022-09-07T01:50:43.230Z,1003.6
2022-09-07T01:51:46.216Z,1003.6
2022-09-07T01:52:48.136Z,1003.6
2022-09-07T01:53:51.296Z,1003.7
2022-09-07T01:54:53.875Z,1003.7
2022-09-07T01:56:00.155Z,1003.7
2022-09-07T01:57:03.656Z,1003.7
2022-09-07T01:58:06.395Z,1003.6
2022-09-07T01:59:10.161Z,1003.7
2022-09-07T02:00:13.556Z,1003.7
2022-09-07T02:01:15.340Z,1003.6
2022-09-07T02:02:18.179Z,1003.6
2022-09-07T02:03:21.356Z,1003.5
2022-09-07T02:04:23.095Z,1003.5
2022-09-07T02:05:25.755Z,1003.6
2022-09-07T02:06:28.175Z,1003.6
2022-09-07T02:07:29.683Z,1003.6
2022-09-07T02:08:32.176Z,1003.6
2022-09-07T02:09:33.656Z,1003.7
2022-09-07T02:10:35.417Z,1003.7
2022-09-07T02:11:37.916Z,1003.7
2022-09-07T02:12:39.901Z,1003.7
2022-09-07T02:13:42.236Z,1003.5
2022-09-07T02:14:44.316Z,1003.6
2022-09-07T02:15:47.107Z,1003.7
2022-09-07T02:16:49.255Z,1003.7
2022-09-07T02:17:52.176Z,1003.6
2022-09-07T02:18:57.495Z,1003.7
2022-09-07T02:20:00.442Z,1003.7
2022-09-07T02:21:03.244Z,1003.6
2022-09-07T02:22:04.883Z,1003.7
2022-09-07T02:23:06.946Z,1003.6
2022-09-07T02:24:08.595Z,1003.6
2022-09-07T02:25:10.478Z,1003.7
2022-09-07T02:26:12.556Z,1003.7
2022-09-07T02:27:14.095Z,1003.6
2022-09-07T02:28:16.355Z,1003.7
2022-09-07T02:29:19.336Z,1003.7
2022-09-07T02:30:22.357Z,1003.6
2022-09-07T02:31:24.911Z,1003.6
2022-09-07T02:32:27.655Z,1003.6
2022-09-07T02:33:30.341Z,1003
2022-09-07T02:34:32.876Z,1003.5
2022-09-07T02:35:35.895Z,1003.6
2022-09-07T02:36:41.976Z,1003.6
2022-09-07T02:37:43.895Z,1003.5
2022-09-07T02:38:46.676Z,1003.5
2022-09-07T02:39:49.287Z,1003.6
2022-09-07T02:40:51.175Z,1003.6
2022-09-07T02:41:53.275Z,1003.5
2022-09-07T02:42:55.076Z,1003.5
2022-09-07T02:43:57.775Z,1003.5
2022-09-07T02:45:00.715Z,1003.5
2022-09-07T02:46:03.663Z,1003.5
2022-09-07T02:47:06.294Z,1003.5
2022-09-07T02:48:07.595Z,1003.5
2022-09-07T02:49:09.314Z,1003.5
2022-09-07T02:50:11.540Z,1003.5
2022-09-07T02:51:12.671Z,1003.5
2022-09-07T02:52:13.755Z,1003.5
2022-09-07T02:53:16.093Z,1003.5
2022-09-07T02:54:20.075Z,1003.5
2022-09-07T02:55:22.736Z,1003.5
2022-09-07T02:56:27.355Z,1003.4
2022-09-07T02:57:29.239Z,1003.5
2022-09-07T02:58:33.376Z,1003.5
2022-09-07T02:59:37.140Z,1003.4
2022-09-07T03:00:40.595Z,1003.5
2022-09-07T03:01:41.922Z,1003.4
2022-09-07T03:02:45.942Z,1003.4
2022-09-07T03:03:49.996Z,1003.4
2022-09-07T03:04:52.355Z,1003.5
2022-09-07T03:05:55.275Z,1003.5
2022-09-07T03:06:58.835Z,1003.4
2022-09-07T03:08:03.876Z,1003.4
2022-09-07T03:09:08.696Z,1003.5
2022-09-07T03:10:12.337Z,1003.4
2022-09-07T03:11:15.974Z,1003.4
2022-09-07T03:12:19.355Z,1003.4
2022-09-07T03:13:24.115Z,1003.4
2022-09-07T03:14:27.457Z,1003.4
2022-09-07T03:15:32.349Z,1003.5
2022-09-07T03:16:36.536Z,1003.5
2022-09-07T03:17:38.676Z,1003.5
2022-09-07T03:18:41.624Z,1003.5
2022-09-07T03:19:44.495Z,1003.5
2022-09-07T03:20:53.477Z,1003.5
2022-09-07T03:21:55.894Z,1003.5
2022-09-07T03:23:00.395Z,1003.5
2022-09-07T03:24:03.795Z,1003.5
2022-09-07T03:25:06.581Z,1003.5
2022-09-07T03:26:10.378Z,1003.5
2022-09-07T03:27:14.297Z,1003.5
2022-09-07T03:28:16.756Z,1003.5
2022-09-07T03:29:20.335Z,1003.5
2022-09-07T03:30:23.951Z,1003.5
2022-09-07T03:31:26.090Z,1003.5
2022-09-07T03:32:27.990Z,1003.4
2022-09-07T03:33:31.395Z,1003.4
2022-09-07T03:34:34.494Z,1003.4
2022-09-07T03:35:37.115Z,1003.4
2022-09-07T03:36:39.339Z,1003.4
2022-09-07T03:37:41.636Z,1003.4
2022-09-07T03:38:43.556Z,1003.4
2022-09-07T03:39:47.166Z,1003.4
2022-09-07T03:40:49.635Z,1003.4
2022-09-07T03:41:51.874Z,1003.5
2022-09-07T03:42:54.336Z,1003.5
2022-09-07T03:43:56.656Z,1003.4
2022-09-07T03:44:58.990Z,1003.4
2022-09-07T03:46:01.356Z,1003.4
2022-09-07T03:47:04.572Z,1003.4
2022-09-07T03:48:10.955Z,1003.4
2022-09-07T03:49:11.416Z,1003.4
2022-09-07T03:50:14.618Z,1003.4
2022-09-07T03:51:17.335Z,1003.4
2022-09-07T03:52:18.915Z,1003.3
2022-09-07T03:53:20.735Z,1003.2
2022-09-07T03:54:22.757Z,1003.3
2022-09-07T03:55:24.864Z,1003.3
2022-09-07T03:56:26.756Z,1003.2
2022-09-07T03:57:29.376Z,1003.3
2022-09-07T03:58:33.156Z,1003.3
2022-09-07T03:59:35.656Z,1003.3
2022-09-07T04:00:37.756Z,1003.3
2022-09-07T04:01:40.923Z,1003.3
2022-09-07T04:02:43.810Z,1003.3
2022-09-07T04:03:49.574Z,1003.3
2022-09-07T04:04:53.376Z,1003.3
2022-09-07T04:05:56.437Z,1003.3
2022-09-07T04:06:59.215Z,1003.3
2022-09-07T04:08:01.696Z,1003.3
2022-09-07T04:09:04.275Z,1003.2
2022-09-07T04:10:08.038Z,1003.2
2022-09-07T04:11:11.875Z,1003.3
2022-09-07T04:12:15.715Z,1003.3
2022-09-07T04:13:19.684Z,1003.3
2022-09-07T04:14:23.043Z,1003.3
2022-09-07T04:15:25.878Z,1003.3
2022-09-07T04:16:34.889Z,1003.2
2022-09-07T04:17:37.496Z,1003.3
2022-09-07T04:18:40.336Z,1003.2
2022-09-07T04:19:43.044Z,1003.2
2022-09-07T04:20:45.083Z,1003.3
2022-09-07T04:21:48.356Z,1003.2
2022-09-07T04:22:54.156Z,1003.2
2022-09-07T04:23:54.975Z,1003.2
2022-09-07T04:24:57.209Z,1003.3
2022-09-07T04:26:00.446Z,1003.2
2022-09-07T04:27:03.595Z,1003.2
2022-09-07T04:28:06.079Z,1003.2
2022-09-07T04:29:07.935Z,1003.2
2022-09-07T04:30:10.554Z,1003.2
2022-09-07T04:31:12.824Z,1003.2
2022-09-07T04:32:15.902Z,1003.2
2022-09-07T04:33:16.698Z,1003.2
2022-09-07T04:34:19.196Z,1003.2
2022-09-07T04:35:21.174Z,1003.2
2022-09-07T04:36:22.835Z,1003.2
2022-09-07T04:37:24.694Z,1003.3
2022-09-07T04:38:30.784Z,1003.2
2022-09-07T04:39:33.863Z,1003.1
2022-09-07T04:40:40.055Z,1003.1
2022-09-07T04:41:43.295Z,1003.1
2022-09-07T04:42:46.336Z,1003.1
2022-09-07T04:43:49.155Z,1003.1
2022-09-07T04:44:53.455Z,1003.1
2022-09-07T04:45:56.701Z,1003.1
2022-09-07T04:47:00.235Z,1003.1
2022-09-07T04:48:03.706Z,1003.1
2022-09-07T04:49:05.751Z,1003.1
2022-09-07T04:50:06.755Z,1003.1
2022-09-07T04:51:08.930Z,1003.1
2022-09-07T04:52:10.896Z,1003.1
2022-09-07T04:53:12.897Z,1003.2
2022-09-07T04:54:14.775Z,1003.2
2022-09-07T04:55:16.818Z,1003.2
2022-09-07T04:56:18.841Z,1003.2
2022-09-07T04:57:20.915Z,1003.3
2022-09-07T04:58:23.745Z,1003.3
2022-09-07T04:59:25.918Z,1003.3
2022-09-07T05:00:28.077Z,1003.2
2022-09-07T05:01:29.745Z,1003.2
2022-09-07T05:02:31.891Z,1003.2
2022-09-07T05:03:33.795Z,1003.2
2022-09-07T05:04:36.255Z,1003.2
2022-09-07T05:05:38.215Z,1003.2
2022-09-07T05:06:39.707Z,1003.2
2022-09-07T05:07:40.769Z,1003.2
2022-09-07T05:08:42.818Z,1003.1
2022-09-07T05:09:44.876Z,1003.1
2022-09-07T05:10:50.314Z,1003.1
2022-09-07T05:11:52.417Z,1003.1
2022-09-07T05:12:53.856Z,1003
2022-09-07T05:13:55.875Z,1003
2022-09-07T05:14:57.755Z,1003.1
2022-09-07T05:15:59.737Z,1003
2022-09-07T05:17:01.894Z,1003
2022-09-07T05:18:04.255Z,1003
2022-09-07T05:19:05.816Z,1003
2022-09-07T05:20:07.995Z,1003
2022-09-07T05:21:09.922Z,1003.1
2022-09-07T05:22:11.696Z,1002.8
2022-09-07T05:23:13.695Z,1003
2022-09-07T05:24:14.806Z,1003
2022-09-07T05:25:16.835Z,1003
2022-09-07T05:26:18.923Z,1003
2022-09-07T05:27:20.835Z,1003
2022-09-07T05:28:22.855Z,1003.1
2022-09-07T05:31:28.917Z,1003.1
2022-09-07T05:32:30.678Z,1003.1
2022-09-07T05:34:33.865Z,1003.1
2022-09-07T05:35:35.704Z,1003
2022-09-07T05:36:36.695Z,1003.1
2022-09-07T05:37:37.715Z,1003.1
2022-09-07T05:38:38.675Z,1003.1
2022-09-07T05:39:39.743Z,1003.1
2022-09-07T05:40:41.033Z,1003.1
2022-09-07T05:41:43.016Z,1003.1
2022-09-07T05:42:45.017Z,1003.2
2022-09-07T05:44:48.688Z,1003.1
2022-09-07T05:45:49.887Z,1003.1
2022-09-07T05:46:52.095Z,1003.1
2022-09-07T05:47:53.734Z,1003
2022-09-07T05:48:54.795Z,1003.1
2022-09-07T05:49:57.114Z,1003.1
2022-09-07T05:50:57.716Z,1003.1
2022-09-07T05:51:59.784Z,1003.1
2022-09-07T05:53:01.736Z,1003.1
2022-09-07T05:54:03.636Z,1003
2022-09-07T05:55:19.589Z,1003
2022-09-07T05:56:07.416Z,1003.1
2022-09-07T05:57:08.812Z,1003.1
2022-09-07T05:58:10.775Z,1003.1
2022-09-07T05:59:12.955Z,1003.1
2022-09-07T06:00:14.815Z,1003.3
2022-09-07T06:01:16.704Z,1003.2
2022-09-07T06:02:18.901Z,1003.2
2022-09-07T06:03:20.221Z,1003.2
2022-09-07T06:04:21.923Z,1003.2
2022-09-07T06:05:23.935Z,1003.3
2022-09-07T06:06:25.777Z,1003.2
2022-09-07T06:07:27.840Z,1003.3
2022-09-07T06:08:29.797Z,1003.3
2022-09-07T06:09:30.945Z,1003.4
2022-09-07T06:10:48.660Z,1003.3
2022-09-07T06:11:34.715Z,1003.3
2022-09-07T06:12:35.795Z,1003.2
2022-09-07T06:13:37.936Z,1003.3
2022-09-07T06:14:39.876Z,1003.3
2022-09-07T06:15:41.884Z,1003.3
2022-09-07T06:16:43.923Z,1003.3
2022-09-07T06:17:45.657Z,1003.3
2022-09-07T06:18:46.724Z,1003.2
2022-09-07T06:19:47.735Z,1003.2
2022-09-07T06:20:48.752Z,1003.3
2022-09-07T06:21:49.835Z,1003.2
2022-09-07T06:22:51.715Z,1003.3
2022-09-07T06:23:52.775Z,1003.3
2022-09-07T06:24:53.656Z,1003.2
2022-09-07T06:25:54.840Z,1003.2
2022-09-07T06:26:56.776Z,1003.3
2022-09-07T06:27:58.855Z,1003.2
2022-09-07T06:29:01.755Z,1003.2
2022-09-07T06:30:02.896Z,1003.2
2022-09-07T06:31:05.164Z,1003.2
2022-09-07T06:33:07.828Z,1003.1
2022-09-07T06:34:09.863Z,1003.1
2022-09-07T06:35:11.736Z,1003.1
2022-09-07T06:36:14.035Z,1003.1
2022-09-07T06:37:15.900Z,1003.2
2022-09-07T06:38:17.922Z,1003.1
2022-09-07T06:39:19.919Z,1003.2
2022-09-07T06:40:21.816Z,1003.2
2022-09-07T06:42:26.156Z,1003.2
2022-09-07T06:43:27.861Z,1003.1
2022-09-07T06:44:29.960Z,1003.1
2022-09-07T06:45:31.748Z,1003.1
2022-09-07T06:47:35.816Z,1003.2
2022-09-07T06:48:39.636Z,1003.2
2022-09-07T06:49:39.738Z,1003.2
2022-09-07T06:50:40.877Z,1003.2
2022-09-07T06:51:43.078Z,1003.1
2022-09-07T06:53:47.209Z,1003.1
2022-09-07T06:55:50.717Z,1003.1
2022-09-07T06:56:51.758Z,1003.1
2022-09-07T06:57:52.735Z,1003.2
2022-09-07T06:58:53.856Z,1003.1
2022-09-07T06:59:55.863Z,1003.2
2022-09-07T07:00:57.854Z,1003.2
2022-09-07T07:01:59.695Z,1003.1
2022-09-07T07:03:00.755Z,1003.1
2022-09-07T07:04:16.756Z,1003.1
2022-09-07T07:05:18.977Z,1003.1
2022-09-07T07:06:20.696Z,1003.1
2022-09-07T07:07:21.817Z,1003.1
2022-09-07T07:08:24.095Z,1003.1
2022-09-07T07:09:25.835Z,1003.1
2022-09-07T07:10:27.831Z,1003.1
2022-09-07T07:11:28.935Z,1002
2022-09-07T07:13:37.895Z,1003
2022-09-07T07:14:44.192Z,1003.1
2022-09-07T07:15:41.943Z,1003
2022-09-07T07:16:44.703Z,1003.1
2022-09-07T07:17:47.979Z,1003
2022-09-07T07:18:47.715Z,1003.1
2022-09-07T07:19:48.856Z,1003
2022-09-07T07:20:50.836Z,1003
2022-09-07T07:22:23.703Z,1003.1
2022-09-07T07:22:54.896Z,1003.1
2022-09-07T07:23:56.796Z,1003
2022-09-07T07:24:59.266Z,1003
2022-09-07T07:26:00.796Z,1003
2022-09-07T07:27:02.916Z,1002.9
2022-09-07T07:29:06.867Z,1003
2022-09-07T07:30:08.884Z,1003
2022-09-07T07:31:13.153Z,1003
2022-09-07T07:32:12.811Z,1003
2022-09-07T07:33:13.953Z,1003
2022-09-07T07:34:15.936Z,1003.1
2022-09-07T07:35:18.099Z,1003
2022-09-07T07:36:19.911Z,1003
2022-09-07T07:37:25.993Z,1003
2022-09-07T07:40:42.984Z,1003
2022-09-07T07:42:01.606Z,1003
2022-09-07T07:43:01.778Z,1003
2022-09-07T07:44:03.962Z,1002.9
2022-09-07T07:46:07.901Z,1003
2022-09-07T07:47:09.905Z,1003
2022-09-07T07:48:11.975Z,1003
2022-09-07T07:49:13.776Z,1003
2022-09-07T07:50:30.696Z,1002.9
2022-09-07T07:51:16.761Z,1002.9
2022-09-07T07:54:21.736Z,1003
2022-09-07T07:56:25.036Z,1003
2022-09-07T07:57:27.156Z,1003
2022-09-07T07:58:28.836Z,1002.9
2022-09-07T07:59:30.776Z,1002.9
2022-09-07T08:00:50.949Z,1002.9
2022-09-07T08:01:34.019Z,1002.9
2022-09-07T08:02:35.800Z,1002.9
2022-09-07T08:03:37.955Z,1002.9
2022-09-07T08:04:39.828Z,1002.9
2022-09-07T08:05:40.960Z,1002.9
2022-09-07T08:06:42.875Z,1002.9
2022-09-07T08:07:44.956Z,1002.9
2022-09-07T08:08:47.896Z,1003
2022-09-07T08:09:49.917Z,1003
2022-09-07T08:10:51.855Z,1002.9
2022-09-07T08:11:53.776Z,1002.9
2022-09-07T08:12:54.755Z,1003
2022-09-07T08:13:56.076Z,1003
2022-09-07T08:14:57.876Z,1003
2022-09-07T08:15:59.599Z,1003
2022-09-07T08:17:00.906Z,1003
2022-09-07T08:18:02.855Z,1003
2022-09-07T08:19:04.876Z,1003
2022-09-07T08:20:06.818Z,1003.1
2022-09-07T08:21:08.897Z,1003.1
2022-09-07T08:22:10.795Z,1003
2022-09-07T08:23:12.048Z,1003.1
2022-09-07T08:24:13.737Z,1003.1
2022-09-07T08:25:14.935Z,1003
2022-09-07T08:26:16.876Z,1003.1
2022-09-07T08:27:18.916Z,1003.1
2022-09-07T08:28:20.787Z,1003
2022-09-07T08:29:23.437Z,1003
2022-09-07T08:30:24.924Z,1003
2022-09-07T08:31:27.190Z,1003
2022-09-07T08:32:28.797Z,1003
2022-09-07T08:33:29.882Z,1003.1
2022-09-07T08:34:31.836Z,1003
2022-09-07T08:35:32.856Z,1003
2022-09-07T08:36:35.048Z,1003
2022-09-07T08:37:36.893Z,1003
2022-09-07T08:38:42.816Z,1003
2022-09-07T08:39:44.789Z,1002.9
2022-09-07T08:40:47.029Z,1003
2022-09-07T08:41:48.783Z,1002.9
2022-09-07T08:42:50.895Z,1002.9
2022-09-07T08:44:04.297Z,1003.3
2022-09-07T08:45:05.737Z,1003
2022-09-07T08:46:07.829Z,1002.9
2022-09-07T08:47:09.966Z,1002.8
2022-09-07T08:48:11.815Z,1002.8
2022-09-07T08:49:14.356Z,1002.8
2022-09-07T08:50:15.976Z,1002.8
2022-09-07T08:51:21.178Z,1002.8
2022-09-07T08:52:19.760Z,1002.8
2022-09-07T08:53:20.806Z,1002.8
2022-09-07T08:54:22.876Z,1002.7
2022-09-07T08:55:24.817Z,1002.7
2022-09-07T08:56:30.300Z,1002.7
2022-09-07T08:57:28.875Z,1002.7
2022-09-07T08:58:48.519Z,1002.6
2022-09-07T08:59:33.117Z,1002.6
2022-09-07T09:00:34.755Z,1002.6
2022-09-07T09:01:37.473Z,1002.6
2022-09-07T09:02:43.336Z,1002.6
2022-09-07T09:04:15.163Z,1002.6
2022-09-07T09:05:43.835Z,1002.6
2022-09-07T09:06:45.723Z,1002.6
2022-09-07T09:07:46.847Z,1002.6
2022-09-07T09:08:48.697Z,1002.6
2022-09-07T09:09:49.738Z,1002.6
2022-09-07T09:10:51.795Z,1002.6
2022-09-07T09:11:53.617Z,1002.6
2022-09-07T09:12:54.659Z,1002.6
2022-09-07T09:13:56.175Z,1002.7
2022-09-07T09:14:57.792Z,1002.6
2022-09-07T09:15:58.809Z,1002.7
2022-09-07T09:17:01.364Z,1002.7
2022-09-07T09:18:02.675Z,1002.7
2022-09-07T09:19:03.878Z,1002.7
2022-09-07T09:20:05.697Z,1002.7
2022-09-07T09:21:06.679Z,1002.7
2022-09-07T09:22:07.835Z,1002.7
2022-09-07T09:23:09.679Z,1002.7
2022-09-07T09:24:11.084Z,1002.6
2022-09-07T09:25:12.775Z,1002.7
2022-09-07T09:26:14.675Z,1002.7
2022-09-07T09:27:15.696Z,1002.6
2022-09-07T09:28:17.743Z,1002.6
2022-09-07T09:29:18.715Z,1002.6
2022-09-07T09:30:19.914Z,1002.6
2022-09-07T09:31:21.928Z,1002.6
2022-09-07T09:32:23.960Z,1002.6
2022-09-07T09:33:25.832Z,1002.6
2022-09-07T09:34:30.342Z,1002.5
2022-09-07T09:35:29.858Z,1002.5
2022-09-07T09:36:31.709Z,1002.5
2022-09-07T09:37:34.001Z,1002.4
2022-09-07T09:38:35.940Z,1002.3
2022-09-07T09:39:37.971Z,1002.3
2022-09-07T09:40:39.795Z,1002.3
2022-09-07T09:41:41.690Z,1002.3
2022-09-07T09:42:42.877Z,1002.3
2022-09-07T09:43:44.981Z,1002.3
2022-09-07T09:44:47.536Z,1002.2
2022-09-07T09:47:29.415Z,1002.2
2022-09-07T09:47:53.739Z,1002.2
2022-09-07T09:48:54.698Z,1002.2
2022-09-07T09:49:55.857Z,1002.1
2022-09-07T09:53:02.480Z,1002.3
2022-09-07T09:54:05.340Z,1002.3
2022-09-07T09:55:34.240Z,1002.3
2022-09-07T09:56:11.176Z,1002.3
2022-09-07T09:57:12.715Z,1002.3
2022-09-07T10:00:26.282Z,1002.2
2022-09-07T10:01:22.081Z,1002.2
2022-09-07T10:04:25.715Z,1002.2
2022-09-07T10:05:26.735Z,1002.2
2022-09-07T10:06:28.896Z,1002.2
2022-09-07T10:07:30.696Z,1002.1
2022-09-07T10:08:31.849Z,1002.2
2022-09-07T10:09:37.643Z,1002.2
2022-09-07T10:10:35.759Z,1002.2
2022-09-07T10:12:39.856Z,1002.2
2022-09-07T10:13:41.855Z,1002.2
2022-09-07T10:14:44.136Z,1002.2
2022-09-07T10:15:47.655Z,1002
2022-09-07T10:16:50.216Z,1002.2
2022-09-07T10:17:52.435Z,1002.2
2022-09-07T10:18:55.716Z,1002.2
2022-09-07T10:19:57.779Z,1002.2
2022-09-07T10:20:59.978Z,1002.2
2022-09-07T10:22:01.896Z,1002.2
2022-09-07T10:23:04.504Z,1002.1
2022-09-07T10:24:06.395Z,1002.2
2022-09-07T10:25:08.859Z,1002.2
2022-09-07T10:26:11.443Z,1002.2
2022-09-07T10:27:12.775Z,1002.2
2022-09-07T10:28:14.915Z,1002.2
2022-09-07T10:29:17.272Z,1002.2
2022-09-07T10:30:18.836Z,1002.1
2022-09-07T10:31:30.641Z,1002.2
2022-09-07T10:32:31.694Z,1002.1
2022-09-07T10:33:32.712Z,1002.1
2022-09-07T10:34:34.857Z,1002.1
2022-09-07T10:35:36.877Z,1002.1
2022-09-07T10:36:38.855Z,1002.1
2022-09-07T10:37:40.863Z,1002.1
2022-09-07T10:38:42.795Z,1002.1
2022-09-07T10:39:44.929Z,1002.1
2022-09-07T10:40:47.748Z,1002.1
2022-09-07T10:41:48.915Z,1002.2
2022-09-07T10:43:51.755Z,1002.1
2022-09-07T10:44:52.755Z,1002.1
2022-09-07T10:45:53.821Z,1002.1
2022-09-07T10:46:56.614Z,1002.1
2022-09-07T10:47:58.676Z,1002.1
2022-09-07T10:48:59.811Z,1002.1
2022-09-07T10:51:09.971Z,1002.1
2022-09-07T10:52:04.755Z,1002
2022-09-07T10:53:18.289Z,1002
2022-09-07T10:55:08.755Z,1002
2022-09-07T10:56:10.138Z,1002
2022-09-07T10:57:11.912Z,1002
2022-09-07T10:58:13.836Z,1002
2022-09-07T10:59:15.896Z,1002
2022-09-07T11:00:17.853Z,1002.1
2022-09-07T11:01:19.971Z,1002
2022-09-07T11:02:21.966Z,1002
2022-09-07T11:03:25.935Z,1002
2022-09-07T11:04:27.075Z,1002
2022-09-07T11:05:33.719Z,1002
2022-09-07T11:06:30.774Z,1002
2022-09-07T11:07:32.831Z,1001.9
2022-09-07T11:09:14.899Z,1002
2022-09-07T11:09:35.838Z,1001.9
2022-09-07T11:10:37.984Z,1001.9
2022-09-07T11:12:40.775Z,1001.9
2022-09-07T11:14:02.046Z,1001.8
2022-09-07T11:14:44.695Z,1001.7
2022-09-07T11:15:46.386Z,1001.8
2022-09-07T11:16:51.664Z,1001.4
2022-09-07T11:17:52.919Z,1001.8
2022-09-07T11:18:52.053Z,1001.9
2022-09-07T11:19:53.319Z,1001.9
2022-09-07T11:20:54.694Z,1001.9
2022-09-07T11:21:56.398Z,1001.9
2022-09-07T11:22:58.225Z,1001.9
2022-09-07T11:23:59.956Z,1001.9
2022-09-07T11:26:03.995Z,1001.9
2022-09-07T11:27:06.159Z,1001.9
2022-09-07T11:28:07.895Z,1001.9
2022-09-07T11:29:39.687Z,1001.9
2022-09-07T11:30:10.775Z,1001.9
2022-09-07T11:31:11.962Z,1001.9
2022-09-07T11:32:13.737Z,1001.8
2022-09-07T11:33:15.036Z,1001.8
2022-09-07T11:34:24.577Z,1001.7
2022-09-07T11:35:21.877Z,1001.8
2022-09-07T11:36:24.036Z,1001.7
2022-09-07T11:37:25.702Z,1001.7
2022-09-07T11:38:26.901Z,1001.7
2022-09-07T11:39:28.836Z,1001.7
2022-09-07T11:40:30.955Z,1001.6
2022-09-07T11:41:32.795Z,1001.7
2022-09-07T11:42:50.332Z,1001.6
2022-09-07T11:43:36.737Z,1001.6
2022-09-07T11:44:37.896Z,1001.6
2022-09-07T11:45:40.336Z,1001.6
2022-09-07T11:46:41.921Z,1001.6
2022-09-07T11:47:42.855Z,1001.6
2022-09-07T11:48:45.157Z,1001.6
2022-09-07T11:49:51.560Z,1001.6
2022-09-07T11:50:52.836Z,1001.6
2022-09-07T11:51:54.978Z,1001.7
2022-09-07T11:52:57.455Z,1001.6
2022-09-07T11:53:58.897Z,1001.6
2022-09-07T11:55:00.781Z,1001.6
2022-09-07T11:56:01.843Z,1001.7
2022-09-07T11:57:05.035Z,1001.7
2022-09-07T11:58:06.877Z,1001.7
2022-09-07T11:59:08.096Z,1001.8
2022-09-07T12:00:09.778Z,1001.7
2022-09-07T12:01:10.819Z,1001.6
2022-09-07T12:02:13.176Z,1001.7
2022-09-07T12:03:16.094Z,1001.7
2022-09-07T12:04:18.421Z,1001.7
2022-09-07T12:05:20.318Z,1001.8
2022-09-07T12:06:23.346Z,1001.7
2022-09-07T12:07:26.137Z,1001.7
2022-09-07T12:08:27.987Z,1001.7
2022-09-07T12:09:30.296Z,1001.7
2022-09-07T12:10:33.377Z,1001.7
2022-09-07T12:11:36.935Z,1001.6
2022-09-07T12:12:39.196Z,1001.6
2022-09-07T12:13:41.302Z,1001.6
2022-09-07T12:14:43.803Z,1001.6
2022-09-07T12:15:45.985Z,1001.6
2022-09-07T12:16:48.237Z,1001.6
2022-09-07T12:17:50.036Z,1001.6
2022-09-07T12:18:52.135Z,1001.6
2022-09-07T12:19:54.238Z,1001.6
2022-09-07T12:20:58.803Z,1001.5
2022-09-07T12:22:01.258Z,1001.5
2022-09-07T12:23:05.028Z,1001.5
2022-09-07T12:24:06.216Z,1001.5
2022-09-07T12:25:08.479Z,1001.5
2022-09-07T12:26:11.696Z,1001.5
2022-09-07T12:27:14.738Z,1001.5
2022-09-07T12:28:21.779Z,1001.4
2022-09-07T12:29:20.330Z,1001.4
2022-09-07T12:30:22.757Z,1001.4
2022-09-07T12:31:26.887Z,1001.4
2022-09-07T12:32:58.690Z,1001.4
2022-09-07T12:33:30.343Z,1001.4
2022-09-07T12:34:32.095Z,1001.4
2022-09-07T12:35:34.156Z,1001.4
2022-09-07T12:36:36.675Z,1001.3
2022-09-07T12:37:39.516Z,1001.3
2022-09-07T12:38:42.736Z,1001.2
2022-09-07T12:39:44.173Z,1001.3
2022-09-07T12:40:45.955Z,1001.3
2022-09-07T12:41:48.765Z,1001.3
2022-09-07T12:42:51.157Z,1001.3
2022-09-07T12:43:54.476Z,1001.3
2022-09-07T12:44:56.444Z,1001.2
2022-09-07T12:45:58.338Z,1001.2
2022-09-07T12:47:00.655Z,1001.3
2022-09-07T12:48:04.477Z,1001.2
2022-09-07T12:49:03.855Z,1001.2
2022-09-07T12:50:06.135Z,1001.2
2022-09-07T12:51:07.975Z,1001.2
2022-09-07T12:52:15.548Z,1001.1
2022-09-07T12:53:12.317Z,1001
2022-09-07T12:54:13.839Z,1001
2022-09-07T12:55:27.737Z,1001
2022-09-07T12:56:18.262Z,1001
2022-09-07T12:57:35.186Z,1001
2022-09-07T12:58:21.856Z,1001
2022-09-07T12:59:23.876Z,1001
2022-09-07T13:00:26.028Z,1001
2022-09-07T13:01:28.635Z,1001
2022-09-07T13:02:30.842Z,1001
2022-09-07T13:04:35.237Z,1001
2022-09-07T13:05:39.038Z,1001
2022-09-07T13:07:43.277Z,1001
2022-09-07T13:08:45.326Z,1000.9
2022-09-07T13:09:47.877Z,1000.9
2022-09-07T13:10:50.195Z,1000.9
2022-09-07T13:11:53.317Z,1000.9
2022-09-07T13:12:57.189Z,1000.9
2022-09-07T13:14:03.802Z,1000.7
2022-09-07T13:15:00.175Z,1000.8
2022-09-07T13:16:03.708Z,1000.8
2022-09-07T13:17:19.778Z,1000.8
2022-09-07T13:18:06.358Z,1000.8
2022-09-07T13:19:08.196Z,1000.8
2022-09-07T13:20:10.419Z,1000.8
2022-09-07T13:21:13.496Z,1000.8
2022-09-07T13:22:16.613Z,1000.8
2022-09-07T13:23:20.636Z,1000.8
2022-09-07T13:25:24.136Z,1000.8
2022-09-07T13:26:26.336Z,1000.8
2022-09-07T13:27:28.220Z,1000.8
2022-09-07T13:28:30.446Z,1000.7
2022-09-07T13:29:31.990Z,1000.8
2022-09-07T13:30:33.926Z,1000.8
2022-09-07T13:31:37.047Z,1000.8
2022-09-07T13:33:41.509Z,1000.8
2022-09-07T13:34:44.296Z,1000.8
2022-09-07T13:35:46.422Z,1000.7
2022-09-07T13:36:49.155Z,1000.7
2022-09-07T13:37:51.782Z,1000.7
2022-09-07T13:38:54.525Z,1000.6
2022-09-07T13:39:57.377Z,1000.7
2022-09-07T13:41:01.095Z,1000.6
2022-09-07T13:42:03.916Z,1000.6
2022-09-07T13:43:06.816Z,1000.7
2022-09-07T13:44:09.602Z,1000.6